createdAt,value
2023-03-31T00:03:22.561Z,40558.47
2023-03-31T00:08:30.894Z,40576.41
2023-03-31T00:13:35.125Z,40616.31
2023-03-31T00:18:47.892Z,40630.25
2023-03-31T00:23:53.014Z,40596.38
2023-03-31T00:28:57.959Z,40596.38
2023-03-31T00:34:03.851Z,40622.28
2023-03-31T00:39:09.050Z,40596.38
2023-03-31T00:44:15.418Z,40642.22
2023-03-31T00:49:27.411Z,40620.28
2023-03-31T00:54:34.210Z,40678.13
2023-03-31T00:59:42.340Z,40634.25
2023-03-31T01:04:55.107Z,40624.28
2023-03-31T01:10:03.572Z,40658.19
2023-03-31T01:15:10.005Z,40674.13
2023-03-31T01:20:26.085Z,40664.16
2023-03-31T01:26:15.961Z,40704.06
2023-03-31T01:31:40.153Z,40726.00
2023-03-31T01:37:14.908Z,40706.03
2023-03-31T01:42:25.562Z,40702.06
2023-03-31T01:47:40.758Z,40706.03
2023-03-31T01:52:51.329Z,40686.09
2023-03-31T01:58:01.645Z,40706.03
2023-03-31T02:03:09.970Z,40706.03
2023-03-31T02:08:18.459Z,40682.13
2023-03-31T02:13:27.096Z,40727.97
2023-03-31T02:18:38.592Z,40692.09
2023-03-31T02:23:43.988Z,40690.09
2023-03-31T02:28:50.008Z,40714.03
2023-03-31T02:33:54.851Z,40733.97
2023-03-31T02:39:05.152Z,40735.97
2023-03-31T02:44:11.306Z,40801.78
2023-03-31T02:49:16.964Z,40753.91
2023-03-31T02:54:54.319Z,40741.94
2023-03-31T03:00:13.509Z,40733.97
2023-03-31T03:05:31.499Z,40771.84
2023-03-31T03:11:06.623Z,40819.72
2023-03-31T03:16:21.944Z,40801.78
2023-03-31T03:21:26.999Z,40793.78
2023-03-31T03:26:35.561Z,40773.84
2023-03-31T03:31:41.390Z,40765.88
2023-03-31T03:36:45.810Z,40771.84
2023-03-31T03:41:50.325Z,40737.94
2023-03-31T03:46:56.225Z,40785.81
2023-03-31T03:52:01.574Z,40773.84
2023-03-31T03:57:06.186Z,40801.78
2023-03-31T04:02:11.941Z,40817.72
2023-03-31T04:07:16.088Z,40801.78
2023-03-31T04:12:20.227Z,40839.66
2023-03-31T04:17:33.124Z,40825.69
2023-03-31T04:22:41.061Z,40869.56
2023-03-31T04:27:47.095Z,40903.47
2023-03-31T04:32:55.071Z,40981.25
2023-03-31T04:38:02.799Z,41037.09
2023-03-31T04:43:07.491Z,41071.00
2023-03-31T04:48:13.637Z,41132.84
2023-03-31T04:53:18.532Z,41164.75
2023-03-31T04:58:22.920Z,41236.56
2023-03-31T05:03:28.862Z,41320.31
2023-03-31T05:08:34.446Z,41352.25
2023-03-31T05:13:38.730Z,41404.09
2023-03-31T05:18:44.949Z,41408.09
2023-03-31T05:23:50.569Z,41493.84
2023-03-31T05:28:54.929Z,41567.66
2023-03-31T05:34:00.748Z,41697.31
2023-03-31T05:39:05.647Z,41775.09
2023-03-31T05:44:10.281Z,41791.06
2023-03-31T05:49:17.409Z,41844.94
2023-03-31T05:54:22.908Z,41884.81
2023-03-31T05:59:27.602Z,41996.53
2023-03-31T06:04:33.726Z,42100.28
2023-03-31T06:09:38.580Z,42208.00
2023-03-31T06:14:43.178Z,42319.72
2023-03-31T06:19:50.065Z,42385.56
2023-03-31T06:24:54.221Z,42481.34
2023-03-31T06:29:58.766Z,42581.09
2023-03-31T06:35:04.677Z,42710.78
2023-03-31T06:40:10.562Z,42900.34
2023-03-31T06:45:14.779Z,43151.75
2023-03-31T06:50:20.513Z,43271.50
2023-03-31T06:55:24.880Z,43371.28
2023-03-31T07:00:29.279Z,43638.69
2023-03-31T07:05:34.987Z,43666.63
2023-03-31T07:10:39.536Z,43660.63
2023-03-31T07:15:44.072Z,43646.66
2023-03-31T07:20:51.767Z,43760.44
2023-03-31T07:25:56.147Z,43684.59
2023-03-31T07:31:00.615Z,43788.38
2023-03-31T07:36:12.539Z,43878.19
2023-03-31T07:41:20.172Z,43896.16
2023-03-31T07:46:27.765Z,43812.31
2023-03-31T07:51:34.278Z,43866.22
2023-03-31T07:56:39.137Z,43748.47
2023-03-31T08:01:43.544Z,44191.53
2023-03-31T08:06:51.779Z,44309.31
2023-03-31T08:11:56.201Z,44357.22
2023-03-31T08:17:00.474Z,44331.28
2023-03-31T08:22:06.329Z,44323.28
2023-03-31T08:27:12.574Z,44289.34
2023-03-31T08:32:16.895Z,44289.34
2023-03-31T08:37:23.054Z,44225.47
2023-03-31T08:42:36.685Z,44179.56
2023-03-31T08:47:42.369Z,44247.44
2023-03-31T08:52:53.610Z,44265.41
2023-03-31T08:58:01.945Z,44241.44
2023-03-31T09:03:15.059Z,44223.47
2023-03-31T09:08:33.945Z,44179.56
2023-03-31T09:13:53.687Z,44185.56
2023-03-31T09:19:01.177Z,44163.59
2023-03-31T09:24:13.106Z,44245.44
2023-03-31T09:29:24.817Z,44217.50
2023-03-31T09:34:33.556Z,44195.53
2023-03-31T09:39:39.845Z,44259.41
2023-03-31T09:44:47.660Z,44177.56
2023-03-31T09:49:54.028Z,44171.59
2023-03-31T09:55:02.994Z,44287.34
2023-03-31T10:00:16.825Z,44267.41
2023-03-31T10:05:28.911Z,44187.56
2023-03-31T10:10:35.257Z,44257.41
2023-03-31T10:15:42.243Z,44315.31
2023-03-31T10:20:51.890Z,44263.41
2023-03-31T10:25:58.083Z,44303.31
2023-03-31T10:31:03.786Z,44333.25
2023-03-31T10:36:13.723Z,44309.31
2023-03-31T10:41:23.469Z,44349.22
2023-03-31T10:46:43.015Z,44275.38
2023-03-31T10:51:51.095Z,44289.34
2023-03-31T10:57:01.746Z,44353.22
2023-03-31T11:02:35.782Z,44285.34
2023-03-31T11:07:52.370Z,44273.38
2023-03-31T11:13:04.572Z,44283.38
2023-03-31T11:18:35.849Z,44267.41
2023-03-31T11:23:43.700Z,44317.28
2023-03-31T11:29:19.541Z,44317.28
2023-03-31T11:34:54.127Z,44305.31
2023-03-31T11:40:09.325Z,44309.31
2023-03-31T11:45:19.871Z,44281.38
2023-03-31T11:50:27.967Z,44335.25
2023-03-31T11:55:34.149Z,44305.31
2023-03-31T12:00:43.614Z,44253.44
2023-03-31T12:05:52.547Z,44199.53
2023-03-31T12:11:04.051Z,44257.41
2023-03-31T12:16:15.044Z,44245.44
2023-03-31T12:21:19.795Z,44281.38
2023-03-31T12:26:39.541Z,44295.34
2023-03-31T12:31:47.524Z,44251.44
2023-03-31T12:37:07.590Z,44253.44
2023-03-31T12:42:46.589Z,44311.31
2023-03-31T12:48:20.559Z,44347.25
2023-03-31T12:53:36.554Z,44417.09
2023-03-31T12:58:43.603Z,44373.19
2023-03-31T13:03:52.624Z,44425.09
2023-03-31T13:08:58.125Z,44532.88
2023-03-31T13:14:04.650Z,44522.91
2023-03-31T13:19:14.030Z,44528.88
2023-03-31T13:24:23.239Z,44536.88
2023-03-31T13:29:41.980Z,44592.75
2023-03-31T13:34:53.706Z,44558.84
2023-03-31T13:40:14.853Z,44602.75
2023-03-31T13:45:29.516Z,44588.78
2023-03-31T13:51:19.557Z,44584.78
2023-03-31T13:56:45.778Z,44616.72
2023-03-31T14:02:04.200Z,44600.75
2023-03-31T14:07:15.997Z,44564.81
2023-03-31T14:12:34.667Z,44459.03
2023-03-31T14:17:43.454Z,44375.19
2023-03-31T14:22:56.668Z,44265.41
2023-03-31T14:28:13.903Z,43926.09
2023-03-31T14:33:34.441Z,43419.16
2023-03-31T14:38:40.740Z,43085.91
2023-03-31T14:43:49.961Z,42662.91
2023-03-31T14:48:54.303Z,42365.63
2023-03-31T14:54:00.526Z,41962.63
2023-03-31T14:59:07.598Z,41553.69
2023-03-31T15:04:15.217Z,41368.19
2023-03-31T15:09:26.112Z,41232.56
2023-03-31T15:14:31.845Z,40943.38
2023-03-31T15:19:37.124Z,40925.41
2023-03-31T15:24:43.299Z,40995.22
2023-03-31T15:29:50.605Z,40973.28
2023-03-31T15:34:57.298Z,41100.94
2023-03-31T15:40:09.519Z,41254.50
2023-03-31T15:45:40.213Z,41264.47
2023-03-31T15:50:45.685Z,41260.50
2023-03-31T15:55:56.078Z,41308.34
2023-03-31T16:01:06.609Z,41344.25
2023-03-31T16:06:16.662Z,41256.50
2023-03-31T16:11:25.253Z,41240.53
2023-03-31T16:16:31.071Z,41130.84
2023-03-31T16:21:40.835Z,41082.97
2023-03-31T16:26:46.867Z,41092.94
2023-03-31T16:31:51.427Z,41120.88
2023-03-31T16:36:56.031Z,41102.91
2023-03-31T16:42:01.822Z,41098.94
2023-03-31T16:47:06.362Z,41075.00
2023-03-31T16:52:11.033Z,41120.88
2023-03-31T16:57:16.952Z,41250.50
2023-03-31T17:02:21.876Z,41222.59
2023-03-31T17:07:27.157Z,41304.38
2023-03-31T17:12:33.045Z,41330.28
2023-03-31T17:17:37.569Z,41280.44
2023-03-31T17:22:42.444Z,41228.56
2023-03-31T17:27:48.438Z,41198.66
2023-03-31T17:32:53.055Z,41276.44
2023-03-31T17:37:57.549Z,41202.66
2023-03-31T17:43:03.978Z,41248.53
2023-03-31T17:48:10.210Z,41244.53
2023-03-31T17:53:14.908Z,41134.84
2023-03-31T17:58:22.347Z,41086.97
2023-03-31T18:03:29.396Z,41100.94
2023-03-31T18:08:34.860Z,41120.88
2023-03-31T18:13:41.178Z,41088.97
2023-03-31T18:18:45.752Z,41094.94
2023-03-31T18:23:52.856Z,41029.13
2023-03-31T18:28:59.205Z,41106.91
2023-03-31T18:34:03.790Z,40993.22
2023-03-31T18:39:08.244Z,40901.50
2023-03-31T18:44:15.135Z,40801.78
2023-03-31T18:49:20.502Z,40670.16
2023-03-31T18:54:25.070Z,40733.97
2023-03-31T18:59:30.838Z,40749.91
2023-03-31T19:04:35.463Z,40726.00
2023-03-31T19:09:40.010Z,40739.94
2023-03-31T19:14:46.270Z,40646.22
2023-03-31T19:19:52.737Z,40692.09
2023-03-31T19:24:59.796Z,40706.03
2023-03-31T19:30:07.025Z,40867.59
2023-03-31T19:35:11.466Z,40811.75
2023-03-31T19:40:16.332Z,40869.56
2023-03-31T19:45:22.163Z,40839.66
2023-03-31T19:50:26.411Z,40879.56
2023-03-31T19:55:31.152Z,40897.50
2023-03-31T20:00:37.683Z,40909.47
2023-03-31T20:05:42.045Z,40953.34
2023-03-31T20:10:46.973Z,41009.19
2023-03-31T20:16:00.144Z,41025.13
2023-03-31T20:21:07.141Z,41055.06
2023-03-31T20:26:13.195Z,41096.94
2023-03-31T20:31:21.323Z,41090.97
2023-03-31T20:36:32.077Z,41118.88
2023-03-31T20:41:38.694Z,41204.63
2023-03-31T20:46:45.066Z,41214.63
2023-03-31T20:51:50.316Z,41262.47
2023-03-31T20:56:54.705Z,41340.28
2023-03-31T21:02:00.350Z,41380.16
2023-03-31T21:07:05.043Z,41469.91
2023-03-31T21:12:09.385Z,41517.78
2023-03-31T21:17:15.112Z,41595.59
2023-03-31T21:22:19.501Z,41643.47
2023-03-31T21:27:27.011Z,41603.56
2023-03-31T21:32:33.207Z,41575.63
2023-03-31T21:37:37.933Z,41539.72
2023-03-31T21:42:42.264Z,41529.75
2023-03-31T21:47:48.770Z,41543.72
2023-03-31T21:52:52.963Z,41579.63
2023-03-31T21:57:57.412Z,41607.56
2023-03-31T22:03:22.355Z,41671.38
2023-03-31T22:08:28.604Z,41679.38
2023-03-31T22:13:32.957Z,41683.34
2023-03-31T22:18:38.993Z,41693.31
2023-03-31T22:23:43.288Z,41713.28
2023-03-31T22:28:47.695Z,41719.25
2023-03-31T22:33:53.781Z,41771.13
2023-03-31T22:38:58.171Z,41759.16
2023-03-31T22:44:02.356Z,41761.16
2023-03-31T22:49:08.152Z,41787.06
2023-03-31T22:54:15.076Z,41767.13
2023-03-31T22:59:19.344Z,41763.13
2023-03-31T23:04:25.112Z,41757.16
2023-03-31T23:09:29.683Z,41747.19
2023-03-31T23:14:33.859Z,41781.09
2023-03-31T23:19:39.933Z,41787.06
2023-03-31T23:24:44.317Z,41777.09
2023-03-31T23:29:49.291Z,41757.16
2023-03-31T23:34:54.974Z,41753.16
2023-03-31T23:39:59.350Z,41759.16
2023-03-31T23:45:03.464Z,41743.19
2023-03-31T23:50:10.495Z,41751.16
2023-03-31T23:55:15.122Z,41755.16
